Houston, Texas
Traffic Map
Current Weather Conditions
Houston, Texas
Overcast Light Rain
Overcast
24°
Feels Like: 24°
Wind Chill: 24° Ceiling: 10000
Heat Index: 24° Visibility: 10mi
Dew Point: 22° Wind: 6mph
Humidity: 87% Direction: 10° (N)
Pressure: 30.05in Gusts: 0mph
Raw Report DataKIAH 012253Z 01005KT 10SM -RA SCT025 SCT050 OVC100 24/22 A3005 RMK AO2 TSE25 SLP175 TS DSIPTD P0002 T02440222
Traffic Incident Summary
Active as of:
Severity:
Category:
InformationThere was an issue retrieving the traffic information for this location. Please try a different location or try again shortly.
Advertisements
Track Severe Weather on mobile